sensor_id;sensor_type;location;lat;lon;timestamp;P1;durP1;ratioP1;P2;durP2;ratioP2
9166;SDS011;4618;48.818;9.088;2023-12-22T00:01:23;3.53;;;1.07;;
9166;SDS011;4618;48.818;9.088;2023-12-22T00:03:49;4.77;;;0.80;;
9166;SDS011;4618;48.818;9.088;2023-12-22T00:06:15;3.10;;;0.83;;
9166;SDS011;4618;48.818;9.088;2023-12-22T00:08:41;4.77;;;1.40;;
9166;SDS011;4618;48.818;9.088;2023-12-22T00:11:07;4.83;;;1.30;;
9166;SDS011;4618;48.818;9.088;2023-12-22T00:13:33;5.60;;;1.60;;
9166;SDS011;4618;48.818;9.088;2023-12-22T00:15:59;4.73;;;1.60;;
9166;SDS011;4618;48.818;9.088;2023-12-22T00:18:25;4.70;;;1.80;;
9166;SDS011;4618;48.818;9.088;2023-12-22T00:20:51;5.57;;;1.50;;
9166;SDS011;4618;48.818;9.088;2023-12-22T00:23:16;5.30;;;1.77;;
9166;SDS011;4618;48.818;9.088;2023-12-22T00:25:42;6.00;;;1.43;;
9166;SDS011;4618;48.818;9.088;2023-12-22T00:28:08;8.13;;;1.73;;
9166;SDS011;4618;48.818;9.088;2023-12-22T00:30:33;5.87;;;1.70;;
9166;SDS011;4618;48.818;9.088;2023-12-22T00:32:59;6.53;;;1.63;;
9166;SDS011;4618;48.818;9.088;2023-12-22T00:35:24;9.13;;;1.90;;
9166;SDS011;4618;48.818;9.088;2023-12-22T00:37:50;8.93;;;1.90;;
9166;SDS011;4618;48.818;9.088;2023-12-22T00:40:16;4.00;;;1.23;;
9166;SDS011;4618;48.818;9.088;2023-12-22T00:42:41;5.20;;;1.00;;
9166;SDS011;4618;48.818;9.088;2023-12-22T00:45:07;4.10;;;0.90;;
9166;SDS011;4618;48.818;9.088;2023-12-22T00:47:33;5.33;;;1.23;;
9166;SDS011;4618;48.818;9.088;2023-12-22T00:50:00;3.87;;;1.00;;
9166;SDS011;4618;48.818;9.088;2023-12-22T00:52:27;4.03;;;1.27;;
9166;SDS011;4618;48.818;9.088;2023-12-22T00:54:52;2.23;;;0.90;;
9166;SDS011;4618;48.818;9.088;2023-12-22T00:57:18;2.60;;;0.90;;
9166;SDS011;4618;48.818;9.088;2023-12-22T00:59:44;3.50;;;1.13;;
9166;SDS011;4618;48.818;9.088;2023-12-22T01:02:15;4.50;;;1.23;;
9166;SDS011;4618;48.818;9.088;2023-12-22T01:04:41;4.03;;;1.10;;
9166;SDS011;4618;48.818;9.088;2023-12-22T01:07:07;2.97;;;1.23;;
9166;SDS011;4618;48.818;9.088;2023-12-22T01:09:33;6.57;;;1.23;;
9166;SDS011;4618;48.818;9.088;2023-12-22T01:11:59;4.40;;;1.23;;
9166;SDS011;4618;48.818;9.088;2023-12-22T01:14:28;4.20;;;1.30;;
9166;SDS011;4618;48.818;9.088;2023-12-22T01:16:53;3.57;;;1.03;;
9166;SDS011;4618;48.818;9.088;2023-12-22T01:19:19;4.47;;;0.90;;
9166;SDS011;4618;48.818;9.088;2023-12-22T01:21:45;4.60;;;1.37;;
9166;SDS011;4618;48.818;9.088;2023-12-22T01:24:10;4.00;;;1.03;;
9166;SDS011;4618;48.818;9.088;2023-12-22T01:26:36;4.53;;;1.27;;
9166;SDS011;4618;48.818;9.088;2023-12-22T01:29:02;2.40;;;0.53;;
9166;SDS011;4618;48.818;9.088;2023-12-22T01:31:28;4.07;;;1.27;;
9166;SDS011;4618;48.818;9.088;2023-12-22T01:33:53;1.70;;;0.80;;
9166;SDS011;4618;48.818;9.088;2023-12-22T01:36:19;4.50;;;0.93;;
9166;SDS011;4618;48.818;9.088;2023-12-22T01:38:44;3.57;;;0.90;;
9166;SDS011;4618;48.818;9.088;2023-12-22T01:41:10;2.43;;;0.77;;
9166;SDS011;4618;48.818;9.088;2023-12-22T01:43:35;1.70;;;0.47;;
9166;SDS011;4618;48.818;9.088;2023-12-22T01:46:01;3.93;;;0.63;;
9166;SDS011;4618;48.818;9.088;2023-12-22T01:48:27;2.40;;;0.53;;
9166;SDS011;4618;48.818;9.088;2023-12-22T01:50:54;2.63;;;0.50;;
9166;SDS011;4618;48.818;9.088;2023-12-22T01:53:21;3.27;;;0.53;;
9166;SDS011;4618;48.818;9.088;2023-12-22T01:55:48;1.13;;;0.50;;
9166;SDS011;4618;48.818;9.088;2023-12-22T01:58:15;1.27;;;0.60;;
9166;SDS011;4618;48.818;9.088;2023-12-22T02:00:42;1.80;;;0.50;;
9166;SDS011;4618;48.818;9.088;2023-12-22T02:03:08;3.20;;;0.67;;
9166;SDS011;4618;48.818;9.088;2023-12-22T02:05:34;1.27;;;0.50;;
9166;SDS011;4618;48.818;9.088;2023-12-22T02:08:00;3.13;;;0.50;;
9166;SDS011;4618;48.818;9.088;2023-12-22T02:10:25;2.60;;;0.43;;
9166;SDS011;4618;48.818;9.088;2023-12-22T02:12:51;3.00;;;0.60;;
9166;SDS011;4618;48.818;9.088;2023-12-22T02:15:17;1.33;;;0.50;;
9166;SDS011;4618;48.818;9.088;2023-12-22T02:17:48;2.70;;;0.47;;
9166;SDS011;4618;48.818;9.088;2023-12-22T02:20:20;1.37;;;0.40;;
9166;SDS011;4618;48.818;9.088;2023-12-22T02:22:50;5.20;;;0.73;;
9166;SDS011;4618;48.818;9.088;2023-12-22T02:25:19;1.40;;;0.40;;
9166;SDS011;4618;48.818;9.088;2023-12-22T02:27:47;1.20;;;0.63;;
9166;SDS011;4618;48.818;9.088;2023-12-22T02:32:58;2.17;;;0.60;;
9166;SDS011;4618;48.818;9.088;2023-12-22T02:35:26;4.17;;;0.83;;
9166;SDS011;4618;48.818;9.088;2023-12-22T02:37:54;3.63;;;0.67;;
9166;SDS011;4618;48.818;9.088;2023-12-22T02:40:23;3.67;;;0.70;;
9166;SDS011;4618;48.818;9.088;2023-12-22T02:42:49;2.23;;;0.60;;
9166;SDS011;4618;48.818;9.088;2023-12-22T02:45:18;3.27;;;0.77;;
9166;SDS011;4618;48.818;9.088;2023-12-22T02:47:44;4.30;;;0.77;;
9166;SDS011;4618;48.818;9.088;2023-12-22T02:50:10;4.47;;;0.73;;
9166;SDS011;4618;48.818;9.088;2023-12-22T02:52:38;2.37;;;0.80;;
9166;SDS011;4618;48.818;9.088;2023-12-22T02:55:03;2.30;;;0.73;;
9166;SDS011;4618;48.818;9.088;2023-12-22T02:57:30;4.80;;;1.07;;
9166;SDS011;4618;48.818;9.088;2023-12-22T02:59:56;1.57;;;0.63;;
9166;SDS011;4618;48.818;9.088;2023-12-22T03:02:22;2.03;;;0.80;;
9166;SDS011;4618;48.818;9.088;2023-12-22T03:04:48;4.10;;;0.70;;
9166;SDS011;4618;48.818;9.088;2023-12-22T03:07:13;4.37;;;0.93;;
9166;SDS011;4618;48.818;9.088;2023-12-22T03:09:39;2.90;;;0.90;;
9166;SDS011;4618;48.818;9.088;2023-12-22T03:12:06;2.17;;;0.90;;
9166;SDS011;4618;48.818;9.088;2023-12-22T03:14:32;2.70;;;0.87;;
9166;SDS011;4618;48.818;9.088;2023-12-22T03:17:01;3.40;;;0.83;;
9166;SDS011;4618;48.818;9.088;2023-12-22T03:19:28;1.80;;;0.60;;
9166;SDS011;4618;48.818;9.088;2023-12-22T03:21:54;3.17;;;0.70;;
9166;SDS011;4618;48.818;9.088;2023-12-22T03:24:20;4.97;;;0.80;;
9166;SDS011;4618;48.818;9.088;2023-12-22T03:26:47;2.43;;;0.50;;
9166;SDS011;4618;48.818;9.088;2023-12-22T03:29:13;4.43;;;0.77;;
9166;SDS011;4618;48.818;9.088;2023-12-22T03:31:39;2.13;;;0.70;;
9166;SDS011;4618;48.818;9.088;2023-12-22T03:34:05;3.57;;;0.80;;
9166;SDS011;4618;48.818;9.088;2023-12-22T03:36:30;4.70;;;0.70;;
9166;SDS011;4618;48.818;9.088;2023-12-22T03:38:56;4.47;;;0.80;;
9166;SDS011;4618;48.818;9.088;2023-12-22T03:41:22;2.43;;;0.70;;
9166;SDS011;4618;48.818;9.088;2023-12-22T03:43:47;1.87;;;0.70;;
9166;SDS011;4618;48.818;9.088;2023-12-22T03:46:13;2.40;;;0.60;;
9166;SDS011;4618;48.818;9.088;2023-12-22T03:48:39;4.30;;;0.93;;
9166;SDS011;4618;48.818;9.088;2023-12-22T03:51:04;2.17;;;0.80;;
9166;SDS011;4618;48.818;9.088;2023-12-22T03:53:30;1.13;;;0.47;;
9166;SDS011;4618;48.818;9.088;2023-12-22T03:55:55;6.37;;;1.07;;
9166;SDS011;4618;48.818;9.088;2023-12-22T03:58:21;3.20;;;0.90;;
9166;SDS011;4618;48.818;9.088;2023-12-22T04:00:47;3.50;;;0.77;;
9166;SDS011;4618;48.818;9.088;2023-12-22T04:03:12;3.97;;;0.87;;
9166;SDS011;4618;48.818;9.088;2023-12-22T04:05:38;2.93;;;1.20;;
9166;SDS011;4618;48.818;9.088;2023-12-22T04:08:04;4.83;;;1.00;;
9166;SDS011;4618;48.818;9.088;2023-12-22T04:10:30;3.40;;;0.90;;
9166;SDS011;4618;48.818;9.088;2023-12-22T04:12:56;6.30;;;1.20;;
9166;SDS011;4618;48.818;9.088;2023-12-22T04:15:21;3.67;;;1.10;;
9166;SDS011;4618;48.818;9.088;2023-12-22T04:17:47;5.77;;;1.30;;
9166;SDS011;4618;48.818;9.088;2023-12-22T04:20:12;4.47;;;1.37;;
9166;SDS011;4618;48.818;9.088;2023-12-22T04:22:38;4.73;;;1.27;;
9166;SDS011;4618;48.818;9.088;2023-12-22T04:25:04;4.23;;;1.13;;
9166;SDS011;4618;48.818;9.088;2023-12-22T04:27:31;5.17;;;1.00;;
9166;SDS011;4618;48.818;9.088;2023-12-22T04:29:56;3.13;;;0.77;;
9166;SDS011;4618;48.818;9.088;2023-12-22T04:32:22;4.20;;;1.23;;
9166;SDS011;4618;48.818;9.088;2023-12-22T04:34:48;3.87;;;1.00;;
9166;SDS011;4618;48.818;9.088;2023-12-22T04:37:13;3.47;;;1.07;;
9166;SDS011;4618;48.818;9.088;2023-12-22T04:39:39;4.37;;;0.80;;
9166;SDS011;4618;48.818;9.088;2023-12-22T04:42:05;5.33;;;0.70;;
9166;SDS011;4618;48.818;9.088;2023-12-22T04:44:31;2.57;;;0.63;;
9166;SDS011;4618;48.818;9.088;2023-12-22T04:46:56;3.50;;;0.90;;
9166;SDS011;4618;48.818;9.088;2023-12-22T04:49:22;3.53;;;1.03;;
9166;SDS011;4618;48.818;9.088;2023-12-22T04:51:47;2.20;;;0.80;;
9166;SDS011;4618;48.818;9.088;2023-12-22T04:54:13;3.27;;;0.70;;
9166;SDS011;4618;48.818;9.088;2023-12-22T04:56:38;2.30;;;0.67;;
9166;SDS011;4618;48.818;9.088;2023-12-22T04:59:04;2.77;;;0.60;;
9166;SDS011;4618;48.818;9.088;2023-12-22T05:01:30;4.50;;;0.60;;
9166;SDS011;4618;48.818;9.088;2023-12-22T05:03:55;4.13;;;0.60;;
9166;SDS011;4618;48.818;9.088;2023-12-22T05:06:21;2.77;;;0.80;;
9166;SDS011;4618;48.818;9.088;2023-12-22T05:08:46;3.07;;;0.97;;
9166;SDS011;4618;48.818;9.088;2023-12-22T05:11:12;5.17;;;1.37;;
9166;SDS011;4618;48.818;9.088;2023-12-22T05:13:38;3.27;;;1.27;;
9166;SDS011;4618;48.818;9.088;2023-12-22T05:16:03;3.73;;;0.93;;
9166;SDS011;4618;48.818;9.088;2023-12-22T05:18:32;4.93;;;1.13;;
9166;SDS011;4618;48.818;9.088;2023-12-22T05:20:57;5.43;;;0.93;;
9166;SDS011;4618;48.818;9.088;2023-12-22T05:23:23;6.10;;;1.37;;
9166;SDS011;4618;48.818;9.088;2023-12-22T05:25:49;5.77;;;1.60;;
9166;SDS011;4618;48.818;9.088;2023-12-22T05:28:14;7.37;;;1.30;;
9166;SDS011;4618;48.818;9.088;2023-12-22T05:30:40;5.93;;;1.27;;
9166;SDS011;4618;48.818;9.088;2023-12-22T05:33:05;7.10;;;1.70;;
9166;SDS011;4618;48.818;9.088;2023-12-22T05:35:31;6.97;;;1.70;;
9166;SDS011;4618;48.818;9.088;2023-12-22T05:37:56;7.43;;;1.60;;
9166;SDS011;4618;48.818;9.088;2023-12-22T05:40:22;7.70;;;1.37;;
9166;SDS011;4618;48.818;9.088;2023-12-22T05:42:48;10.03;;;1.97;;
9166;SDS011;4618;48.818;9.088;2023-12-22T05:45:14;5.63;;;1.70;;
9166;SDS011;4618;48.818;9.088;2023-12-22T05:47:40;6.17;;;1.50;;
9166;SDS011;4618;48.818;9.088;2023-12-22T05:50:05;4.50;;;1.20;;
9166;SDS011;4618;48.818;9.088;2023-12-22T05:52:32;6.87;;;1.43;;
9166;SDS011;4618;48.818;9.088;2023-12-22T05:54:58;5.50;;;1.37;;
9166;SDS011;4618;48.818;9.088;2023-12-22T05:57:26;8.30;;;1.50;;
9166;SDS011;4618;48.818;9.088;2023-12-22T05:59:52;5.83;;;1.50;;
9166;SDS011;4618;48.818;9.088;2023-12-22T06:02:17;8.03;;;1.47;;
9166;SDS011;4618;48.818;9.088;2023-12-22T06:04:43;6.57;;;1.40;;
9166;SDS011;4618;48.818;9.088;2023-12-22T06:07:09;4.70;;;1.60;;
9166;SDS011;4618;48.818;9.088;2023-12-22T06:09:35;6.90;;;1.30;;
9166;SDS011;4618;48.818;9.088;2023-12-22T06:12:01;6.97;;;1.37;;
9166;SDS011;4618;48.818;9.088;2023-12-22T06:14:27;6.90;;;1.50;;
9166;SDS011;4618;48.818;9.088;2023-12-22T06:16:52;9.37;;;1.70;;
9166;SDS011;4618;48.818;9.088;2023-12-22T06:19:18;6.47;;;1.93;;
9166;SDS011;4618;48.818;9.088;2023-12-22T06:21:44;8.00;;;1.60;;
9166;SDS011;4618;48.818;9.088;2023-12-22T06:24:10;8.40;;;1.87;;
9166;SDS011;4618;48.818;9.088;2023-12-22T06:26:35;6.10;;;1.50;;
9166;SDS011;4618;48.818;9.088;2023-12-22T06:29:01;7.00;;;1.20;;
9166;SDS011;4618;48.818;9.088;2023-12-22T06:31:28;6.70;;;1.17;;
9166;SDS011;4618;48.818;9.088;2023-12-22T06:33:54;8.67;;;2.00;;
9166;SDS011;4618;48.818;9.088;2023-12-22T06:36:23;7.10;;;1.90;;
9166;SDS011;4618;48.818;9.088;2023-12-22T06:38:50;3.57;;;0.93;;
9166;SDS011;4618;48.818;9.088;2023-12-22T06:43:58;5.33;;;1.43;;
9166;SDS011;4618;48.818;9.088;2023-12-22T06:46:27;5.07;;;1.60;;
9166;SDS011;4618;48.818;9.088;2023-12-22T06:48:57;4.03;;;1.20;;
9166;SDS011;4618;48.818;9.088;2023-12-22T06:51:23;5.33;;;1.20;;
9166;SDS011;4618;48.818;9.088;2023-12-22T06:53:53;5.50;;;1.30;;
9166;SDS011;4618;48.818;9.088;2023-12-22T06:58:48;7.43;;;1.50;;
9166;SDS011;4618;48.818;9.088;2023-12-22T07:01:19;4.33;;;1.13;;
9166;SDS011;4618;48.818;9.088;2023-12-22T07:04:01;3.77;;;1.03;;
9166;SDS011;4618;48.818;9.088;2023-12-22T07:06:28;6.90;;;1.57;;
9166;SDS011;4618;48.818;9.088;2023-12-22T07:08:56;5.10;;;1.40;;
9166;SDS011;4618;48.818;9.088;2023-12-22T07:11:22;6.50;;;1.67;;
9166;SDS011;4618;48.818;9.088;2023-12-22T07:13:48;6.30;;;1.40;;
9166;SDS011;4618;48.818;9.088;2023-12-22T07:16:14;5.13;;;1.00;;
9166;SDS011;4618;48.818;9.088;2023-12-22T07:18:40;5.73;;;1.30;;
9166;SDS011;4618;48.818;9.088;2023-12-22T07:21:06;9.13;;;1.60;;
9166;SDS011;4618;48.818;9.088;2023-12-22T07:23:32;4.47;;;1.50;;
9166;SDS011;4618;48.818;9.088;2023-12-22T07:25:58;6.93;;;1.90;;
9166;SDS011;4618;48.818;9.088;2023-12-22T07:28:23;6.27;;;1.50;;
9166;SDS011;4618;48.818;9.088;2023-12-22T07:30:49;7.20;;;1.60;;
9166;SDS011;4618;48.818;9.088;2023-12-22T07:33:14;5.77;;;1.63;;
9166;SDS011;4618;48.818;9.088;2023-12-22T07:35:40;3.77;;;1.13;;
9166;SDS011;4618;48.818;9.088;2023-12-22T07:38:06;4.10;;;1.20;;
9166;SDS011;4618;48.818;9.088;2023-12-22T07:40:31;3.83;;;1.00;;
9166;SDS011;4618;48.818;9.088;2023-12-22T07:42:57;5.37;;;1.13;;
9166;SDS011;4618;48.818;9.088;2023-12-22T07:45:23;5.70;;;1.30;;
9166;SDS011;4618;48.818;9.088;2023-12-22T07:47:48;5.00;;;1.37;;
9166;SDS011;4618;48.818;9.088;2023-12-22T07:50:14;5.10;;;1.50;;
9166;SDS011;4618;48.818;9.088;2023-12-22T07:52:40;7.87;;;1.10;;
9166;SDS011;4618;48.818;9.088;2023-12-22T07:55:06;3.07;;;0.83;;
9166;SDS011;4618;48.818;9.088;2023-12-22T07:57:34;5.97;;;1.03;;
9166;SDS011;4618;48.818;9.088;2023-12-22T07:59:59;2.83;;;0.77;;
9166;SDS011;4618;48.818;9.088;2023-12-22T08:02:25;6.77;;;1.40;;
9166;SDS011;4618;48.818;9.088;2023-12-22T08:04:51;6.47;;;1.50;;
9166;SDS011;4618;48.818;9.088;2023-12-22T08:07:17;4.53;;;1.37;;
9166;SDS011;4618;48.818;9.088;2023-12-22T08:09:42;5.30;;;1.60;;
9166;SDS011;4618;48.818;9.088;2023-12-22T08:12:08;4.30;;;1.20;;
9166;SDS011;4618;48.818;9.088;2023-12-22T08:14:34;7.87;;;1.70;;
9166;SDS011;4618;48.818;9.088;2023-12-22T08:16:59;5.80;;;1.40;;
9166;SDS011;4618;48.818;9.088;2023-12-22T08:19:25;6.83;;;1.20;;
9166;SDS011;4618;48.818;9.088;2023-12-22T08:21:52;12.17;;;1.70;;
9166;SDS011;4618;48.818;9.088;2023-12-22T08:24:18;9.97;;;1.93;;
9166;SDS011;4618;48.818;9.088;2023-12-22T08:26:44;5.67;;;1.77;;
9166;SDS011;4618;48.818;9.088;2023-12-22T08:29:09;9.63;;;1.70;;
9166;SDS011;4618;48.818;9.088;2023-12-22T08:31:35;12.57;;;2.33;;
9166;SDS011;4618;48.818;9.088;2023-12-22T08:34:01;12.27;;;2.30;;
9166;SDS011;4618;48.818;9.088;2023-12-22T08:36:26;6.60;;;1.80;;
9166;SDS011;4618;48.818;9.088;2023-12-22T08:38:52;11.93;;;2.60;;
9166;SDS011;4618;48.818;9.088;2023-12-22T08:41:17;14.40;;;2.33;;
9166;SDS011;4618;48.818;9.088;2023-12-22T08:43:43;9.17;;;2.20;;
9166;SDS011;4618;48.818;9.088;2023-12-22T08:46:09;7.27;;;1.53;;
9166;SDS011;4618;48.818;9.088;2023-12-22T08:48:37;8.03;;;1.77;;
9166;SDS011;4618;48.818;9.088;2023-12-22T08:51:03;9.93;;;2.00;;
9166;SDS011;4618;48.818;9.088;2023-12-22T08:53:29;6.00;;;1.70;;
9166;SDS011;4618;48.818;9.088;2023-12-22T08:55:58;10.10;;;1.53;;
9166;SDS011;4618;48.818;9.088;2023-12-22T08:58:24;7.50;;;1.83;;
9166;SDS011;4618;48.818;9.088;2023-12-22T09:00:51;12.13;;;2.10;;
9166;SDS011;4618;48.818;9.088;2023-12-22T09:03:16;7.10;;;1.80;;
9166;SDS011;4618;48.818;9.088;2023-12-22T09:05:42;10.57;;;1.97;;
9166;SDS011;4618;48.818;9.088;2023-12-22T09:08:07;10.17;;;1.93;;
9166;SDS011;4618;48.818;9.088;2023-12-22T09:10:33;13.83;;;2.77;;
9166;SDS011;4618;48.818;9.088;2023-12-22T09:12:59;10.63;;;2.67;;
9166;SDS011;4618;48.818;9.088;2023-12-22T09:15:25;8.77;;;2.20;;
9166;SDS011;4618;48.818;9.088;2023-12-22T09:17:51;11.80;;;1.93;;
9166;SDS011;4618;48.818;9.088;2023-12-22T09:20:18;7.90;;;1.73;;
9166;SDS011;4618;48.818;9.088;2023-12-22T09:22:44;9.57;;;2.23;;
9166;SDS011;4618;48.818;9.088;2023-12-22T09:25:09;9.93;;;1.63;;
9166;SDS011;4618;48.818;9.088;2023-12-22T09:27:35;8.53;;;1.90;;
9166;SDS011;4618;48.818;9.088;2023-12-22T09:30:00;10.27;;;2.13;;
9166;SDS011;4618;48.818;9.088;2023-12-22T09:32:26;14.13;;;2.40;;
9166;SDS011;4618;48.818;9.088;2023-12-22T09:34:52;7.40;;;1.33;;
9166;SDS011;4618;48.818;9.088;2023-12-22T09:37:20;11.73;;;2.40;;
9166;SDS011;4618;48.818;9.088;2023-12-22T09:39:45;9.37;;;2.23;;
9166;SDS011;4618;48.818;9.088;2023-12-22T09:42:11;12.07;;;2.63;;
9166;SDS011;4618;48.818;9.088;2023-12-22T09:44:37;10.83;;;2.50;;
9166;SDS011;4618;48.818;9.088;2023-12-22T09:47:05;10.33;;;2.60;;
9166;SDS011;4618;48.818;9.088;2023-12-22T09:49:35;12.80;;;2.53;;
9166;SDS011;4618;48.818;9.088;2023-12-22T09:52:01;18.20;;;2.80;;
9166;SDS011;4618;48.818;9.088;2023-12-22T09:54:31;11.27;;;2.60;;
9166;SDS011;4618;48.818;9.088;2023-12-22T09:56:57;9.83;;;2.30;;
9166;SDS011;4618;48.818;9.088;2023-12-22T09:59:25;12.63;;;2.63;;
9166;SDS011;4618;48.818;9.088;2023-12-22T10:01:53;13.07;;;2.93;;
9166;SDS011;4618;48.818;9.088;2023-12-22T10:04:20;10.27;;;2.30;;
9166;SDS011;4618;48.818;9.088;2023-12-22T10:06:46;14.57;;;1.83;;
9166;SDS011;4618;48.818;9.088;2023-12-22T10:09:14;13.80;;;3.07;;
9166;SDS011;4618;48.818;9.088;2023-12-22T10:11:41;11.00;;;2.30;;
9166;SDS011;4618;48.818;9.088;2023-12-22T10:14:09;9.70;;;2.20;;
9166;SDS011;4618;48.818;9.088;2023-12-22T10:16:38;9.60;;;2.63;;
9166;SDS011;4618;48.818;9.088;2023-12-22T10:19:04;10.73;;;2.23;;
9166;SDS011;4618;48.818;9.088;2023-12-22T10:21:31;8.37;;;2.20;;
9166;SDS011;4618;48.818;9.088;2023-12-22T10:23:57;6.30;;;1.87;;
9166;SDS011;4618;48.818;9.088;2023-12-22T10:26:22;13.10;;;2.10;;
9166;SDS011;4618;48.818;9.088;2023-12-22T10:28:48;8.77;;;2.33;;
9166;SDS011;4618;48.818;9.088;2023-12-22T10:31:14;8.37;;;2.30;;
9166;SDS011;4618;48.818;9.088;2023-12-22T10:33:40;8.77;;;2.03;;
9166;SDS011;4618;48.818;9.088;2023-12-22T10:36:07;8.57;;;1.70;;
9166;SDS011;4618;48.818;9.088;2023-12-22T10:38:33;15.47;;;2.37;;
9166;SDS011;4618;48.818;9.088;2023-12-22T10:41:05;7.67;;;1.73;;
9166;SDS011;4618;48.818;9.088;2023-12-22T10:43:38;8.97;;;2.00;;
9166;SDS011;4618;48.818;9.088;2023-12-22T10:46:05;9.57;;;2.10;;
9166;SDS011;4618;48.818;9.088;2023-12-22T10:48:33;9.77;;;2.20;;
9166;SDS011;4618;48.818;9.088;2023-12-22T10:50:58;9.00;;;2.00;;
9166;SDS011;4618;48.818;9.088;2023-12-22T10:53:24;6.77;;;1.90;;
9166;SDS011;4618;48.818;9.088;2023-12-22T10:55:50;6.60;;;1.70;;
9166;SDS011;4618;48.818;9.088;2023-12-22T10:58:16;7.17;;;1.43;;
9166;SDS011;4618;48.818;9.088;2023-12-22T11:00:44;3.40;;;1.30;;
9166;SDS011;4618;48.818;9.088;2023-12-22T11:03:12;4.77;;;1.20;;
9166;SDS011;4618;48.818;9.088;2023-12-22T11:05:43;4.17;;;1.30;;
9166;SDS011;4618;48.818;9.088;2023-12-22T11:08:11;4.47;;;1.10;;
9166;SDS011;4618;48.818;9.088;2023-12-22T11:10:38;2.57;;;0.80;;
9166;SDS011;4618;48.818;9.088;2023-12-22T11:13:06;2.63;;;0.87;;
9166;SDS011;4618;48.818;9.088;2023-12-22T11:15:33;6.13;;;1.03;;
9166;SDS011;4618;48.818;9.088;2023-12-22T11:18:00;2.63;;;0.83;;
9166;SDS011;4618;48.818;9.088;2023-12-22T11:20:27;6.97;;;1.07;;
9166;SDS011;4618;48.818;9.088;2023-12-22T11:22:57;4.70;;;0.80;;
9166;SDS011;4618;48.818;9.088;2023-12-22T11:25:24;4.03;;;1.00;;
9166;SDS011;4618;48.818;9.088;2023-12-22T11:27:51;3.60;;;1.00;;
9166;SDS011;4618;48.818;9.088;2023-12-22T11:30:18;4.43;;;0.97;;
9166;SDS011;4618;48.818;9.088;2023-12-22T11:32:45;3.83;;;1.00;;
9166;SDS011;4618;48.818;9.088;2023-12-22T11:35:11;5.47;;;1.17;;
9166;SDS011;4618;48.818;9.088;2023-12-22T11:37:38;3.40;;;0.97;;
9166;SDS011;4618;48.818;9.088;2023-12-22T11:40:05;3.13;;;0.90;;
9166;SDS011;4618;48.818;9.088;2023-12-22T11:42:33;2.53;;;0.70;;
9166;SDS011;4618;48.818;9.088;2023-12-22T11:45:03;2.37;;;0.70;;
9166;SDS011;4618;48.818;9.088;2023-12-22T11:47:29;2.80;;;0.80;;
9166;SDS011;4618;48.818;9.088;2023-12-22T11:49:55;2.77;;;0.90;;
9166;SDS011;4618;48.818;9.088;2023-12-22T11:52:25;3.70;;;0.70;;
9166;SDS011;4618;48.818;9.088;2023-12-22T11:54:53;2.60;;;0.73;;
9166;SDS011;4618;48.818;9.088;2023-12-22T11:57:41;3.70;;;0.80;;
9166;SDS011;4618;48.818;9.088;2023-12-22T12:00:09;3.57;;;0.80;;
9166;SDS011;4618;48.818;9.088;2023-12-22T12:03:03;5.73;;;0.80;;
9166;SDS011;4618;48.818;9.088;2023-12-22T12:05:31;1.00;;;0.50;;
9166;SDS011;4618;48.818;9.088;2023-12-22T12:08:05;2.13;;;0.60;;
9166;SDS011;4618;48.818;9.088;2023-12-22T12:13:07;2.53;;;0.67;;
9166;SDS011;4618;48.818;9.088;2023-12-22T12:15:33;2.73;;;0.83;;
9166;SDS011;4618;48.818;9.088;2023-12-22T12:18:00;1.77;;;0.80;;
9166;SDS011;4618;48.818;9.088;2023-12-22T12:20:32;1.80;;;0.67;;
9166;SDS011;4618;48.818;9.088;2023-12-22T12:22:58;1.40;;;0.50;;
9166;SDS011;4618;48.818;9.088;2023-12-22T12:25:29;2.20;;;0.40;;
9166;SDS011;4618;48.818;9.088;2023-12-22T12:28:02;1.83;;;0.60;;
9166;SDS011;4618;48.818;9.088;2023-12-22T12:30:29;1.07;;;0.60;;
9166;SDS011;4618;48.818;9.088;2023-12-22T12:32:58;0.90;;;0.40;;
9166;SDS011;4618;48.818;9.088;2023-12-22T12:35:33;1.93;;;0.50;;
9166;SDS011;4618;48.818;9.088;2023-12-22T12:37:59;1.00;;;0.50;;
9166;SDS011;4618;48.818;9.088;2023-12-22T12:40:26;1.13;;;0.40;;
9166;SDS011;4618;48.818;9.088;2023-12-22T12:42:54;1.37;;;0.30;;
9166;SDS011;4618;48.818;9.088;2023-12-22T12:45:24;0.60;;;0.30;;
9166;SDS011;4618;48.818;9.088;2023-12-22T12:50:25;0.43;;;0.23;;
9166;SDS011;4618;48.818;9.088;2023-12-22T12:52:52;0.77;;;0.40;;
9166;SDS011;4618;48.818;9.088;2023-12-22T12:55:22;1.07;;;0.30;;
9166;SDS011;4618;48.818;9.088;2023-12-22T12:57:49;0.17;;;0.17;;
9166;SDS011;4618;48.818;9.088;2023-12-22T13:00:16;0.40;;;0.30;;
9166;SDS011;4618;48.818;9.088;2023-12-22T13:03:04;2.40;;;0.30;;
9166;SDS011;4618;48.818;9.088;2023-12-22T13:05:33;0.83;;;0.30;;
9166;SDS011;4618;48.818;9.088;2023-12-22T13:08:06;0.53;;;0.20;;
9166;SDS011;4618;48.818;9.088;2023-12-22T13:10:35;0.20;;;0.17;;
9166;SDS011;4618;48.818;9.088;2023-12-22T13:13:02;0.63;;;0.20;;
9166;SDS011;4618;48.818;9.088;2023-12-22T13:15:28;0.23;;;0.10;;
9166;SDS011;4618;48.818;9.088;2023-12-22T13:17:53;0.30;;;0.20;;
9166;SDS011;4618;48.818;9.088;2023-12-22T13:20:20;0.43;;;0.20;;
9166;SDS011;4618;48.818;9.088;2023-12-22T13:22:45;0.17;;;0.17;;
9166;SDS011;4618;48.818;9.088;2023-12-22T13:25:11;0.60;;;0.10;;
9166;SDS011;4618;48.818;9.088;2023-12-22T13:27:51;0.27;;;0.10;;
9166;SDS011;4618;48.818;9.088;2023-12-22T13:33:14;0.40;;;0.20;;
9166;SDS011;4618;48.818;9.088;2023-12-22T13:35:40;0.10;;;0.10;;
9166;SDS011;4618;48.818;9.088;2023-12-22T13:38:06;0.13;;;0.10;;
9166;SDS011;4618;48.818;9.088;2023-12-22T13:40:32;1.47;;;0.20;;
9166;SDS011;4618;48.818;9.088;2023-12-22T13:42:58;0.30;;;0.10;;
9166;SDS011;4618;48.818;9.088;2023-12-22T13:45:27;0.10;;;0.10;;
9166;SDS011;4618;48.818;9.088;2023-12-22T13:47:53;0.10;;;0.10;;
9166;SDS011;4618;48.818;9.088;2023-12-22T13:50:19;0.20;;;0.10;;
9166;SDS011;4618;48.818;9.088;2023-12-22T13:52:48;0.27;;;0.20;;
9166;SDS011;4618;48.818;9.088;2023-12-22T13:55:15;0.03;;;0.03;;
9166;SDS011;4618;48.818;9.088;2023-12-22T13:57:42;0.40;;;0.10;;
9166;SDS011;4618;48.818;9.088;2023-12-22T14:02:43;0.30;;;0.20;;
9166;SDS011;4618;48.818;9.088;2023-12-22T14:05:16;0.13;;;0.13;;
9166;SDS011;4618;48.818;9.088;2023-12-22T14:07:43;0.30;;;0.30;;
9166;SDS011;4618;48.818;9.088;2023-12-22T14:10:09;0.10;;;0.10;;
9166;SDS011;4618;48.818;9.088;2023-12-22T14:12:35;0.20;;;0.20;;
9166;SDS011;4618;48.818;9.088;2023-12-22T14:15:10;0.70;;;0.10;;
9166;SDS011;4618;48.818;9.088;2023-12-22T14:17:37;0.57;;;0.20;;
9166;SDS011;4618;48.818;9.088;2023-12-22T14:20:03;0.57;;;0.10;;
9166;SDS011;4618;48.818;9.088;2023-12-22T14:22:34;0.20;;;0.10;;
9166;SDS011;4618;48.818;9.088;2023-12-22T14:25:03;0.20;;;0.20;;
9166;SDS011;4618;48.818;9.088;2023-12-22T14:27:29;0.40;;;0.10;;
9166;SDS011;4618;48.818;9.088;2023-12-22T14:29:55;0.30;;;0.10;;
9166;SDS011;4618;48.818;9.088;2023-12-22T14:32:21;0.20;;;0.10;;
9166;SDS011;4618;48.818;9.088;2023-12-22T14:34:47;0.17;;;0.10;;
9166;SDS011;4618;48.818;9.088;2023-12-22T14:37:14;0.20;;;0.10;;
9166;SDS011;4618;48.818;9.088;2023-12-22T14:39:43;0.10;;;0.10;;
9166;SDS011;4618;48.818;9.088;2023-12-22T14:42:10;0.20;;;0.10;;
9166;SDS011;4618;48.818;9.088;2023-12-22T14:44:36;0.10;;;0.10;;
9166;SDS011;4618;48.818;9.088;2023-12-22T14:47:03;0.50;;;0.20;;
9166;SDS011;4618;48.818;9.088;2023-12-22T14:49:30;0.27;;;0.10;;
9166;SDS011;4618;48.818;9.088;2023-12-22T14:51:55;0.43;;;0.13;;
9166;SDS011;4618;48.818;9.088;2023-12-22T14:54:23;0.10;;;0.10;;
9166;SDS011;4618;48.818;9.088;2023-12-22T14:56:49;0.20;;;0.10;;
9166;SDS011;4618;48.818;9.088;2023-12-22T14:59:16;0.87;;;0.30;;
9166;SDS011;4618;48.818;9.088;2023-12-22T15:01:42;0.20;;;0.20;;
9166;SDS011;4618;48.818;9.088;2023-12-22T15:04:08;0.20;;;0.20;;
9166;SDS011;4618;48.818;9.088;2023-12-22T15:06:37;0.77;;;0.20;;
9166;SDS011;4618;48.818;9.088;2023-12-22T15:09:04;0.57;;;0.33;;
9166;SDS011;4618;48.818;9.088;2023-12-22T15:11:30;0.20;;;0.20;;
9166;SDS011;4618;48.818;9.088;2023-12-22T15:13:55;0.20;;;0.20;;
9166;SDS011;4618;48.818;9.088;2023-12-22T15:16:21;0.10;;;0.10;;
9166;SDS011;4618;48.818;9.088;2023-12-22T15:18:47;0.10;;;0.10;;
9166;SDS011;4618;48.818;9.088;2023-12-22T15:21:19;0.30;;;0.27;;
9166;SDS011;4618;48.818;9.088;2023-12-22T15:23:46;0.30;;;0.17;;
9166;SDS011;4618;48.818;9.088;2023-12-22T15:26:21;0.13;;;0.13;;
9166;SDS011;4618;48.818;9.088;2023-12-22T15:28:47;0.60;;;0.20;;
9166;SDS011;4618;48.818;9.088;2023-12-22T15:31:13;0.20;;;0.20;;